首页
METAR-TAF:

METAR-TAF

机场 :

布鲁塞尔, 比利时

布鲁塞尔机场

纬度: 50-54N, 经度: 004-32E, 海拔: 55米

当前天气观测

该预报发布于20分钟前的23:50 UTC
风速12节,风向西南
温度 5°C
湿度 81%
气压 1006 hPa
能见度10公里或以上
少量云层高于3000英尺

METAR: EBBR 172350Z 23012KT 9999 FEW030 05/02 Q1006 NOSIG

时间: 01:10 (00:10 UTC)

预报

该预报发布于1小时和10分钟前的23:00 UTC
预报有效从18日的 00点(UTC)到 19日的 06点(UTC)
风速15节,风向西南
能见度10公里或以上
散云层高于2000英尺
多云层高于4000英尺
短暂存在
从 18日的 01点(UTC)到 18日的 06点(UTC)
风速20节,风向南转西南,有时为30节阵风
能見度: 4000
多云层高于800英尺
雨, 阵雨
几率 40% :
短暂存在
从 18日的 03点(UTC)到 18日的 06点(UTC)
风速23节,风向西南,有时为40节阵风
成为
从 18日的 06点(UTC)到 18日的 08点(UTC)
风速23节,风向西转西南,有时为40节阵风
成为
从 18日的 10点(UTC)到 18日的 12点(UTC)
风速18节,风向西,有时为35节阵风
成为
从 18日的 14点(UTC)到 18日的 16点(UTC)
风速13节,风向西
几率 40% :
短暂存在
从 18日的 20点(UTC)到 19日的 02点(UTC)
能見度: 4000
散云层高于800英尺
多云层高于1400英尺, 积雨云.
阵雨

TAF: EBBR 172300Z 1800/1906 22015KT 9999 SCT020 BKN040 TEMPO 1801/1806 21020G30KT 4000 RA SHRA BKN008 PROB40 TEMPO 1803/1806 23023G40KT BECMG 1806/1808 25023G40KT BECMG 1810/1812 28018G35KT BECMG 1814/1816 27013KT PROB40 TEMPO 1820/1902 4000 SHRA SCT008 BKN014CB

超过4000个机场的气象观测和天气预报(METAR&TAF报告)。

可查询的气象台以黄色和红色小点在地图上表示。

将鼠标移到小点上方,可查看气象台名称。

然后点击查看天气观测和预报。

如需切换地图:点击带黑十字的绿色按钮放大地图;点击带横线的绿色按钮缩小地图;或者点击绿色箭头查看邻近地区的地图。


METAR-TAF: